Time;durP1;ratioP1;P1;durP2;ratioP2;P2;SDS_P1;SDS_P2;PMS_P1;PMS_P2;Temp;Humidity;BMP_temperature;BMP_pressure;BME280_temperature;BME280_humidity;BME280_pressure;Samples;Min_cycle;Max_cycle;Signal;HPM_P1;HPM_P2
2023/03/03 00:01:18;;;;;;;55.13;26.20;;;;;;;;;;5098431;28;20633;-48
2023/03/03 00:03:45;;;;;;;49.47;24.30;;;;;;;;;;5099233;28;20203;-47
2023/03/03 00:06:13;;;;;;;48.83;24.60;;;;;;;;;;5099585;28;20280;-49
2023/03/03 00:08:40;;;;;;;57.80;26.13;;;;;;;;;;5099218;28;20202;-48
2023/03/03 00:11:08;;;;;;;50.33;24.53;;;;;;;;;;5098990;28;20210;-46
2023/03/03 00:13:52;;;;;;;50.77;24.77;;;;;;;;;;5098944;28;20198;-51
2023/03/03 00:16:26;;;;;;;55.30;25.67;;;;;;;;;;5098974;28;20241;-50
2023/03/03 00:18:54;;;;;;;152.27;54.47;;;;;;;;;;5097957;28;20206;-53
2023/03/03 00:21:40;;;;;;;58.13;27.53;;;;;;;;;;5098904;28;20194;-47
2023/03/03 00:24:17;;;;;;;75.63;32.03;;;;;;;;;;5099290;28;20271;-47
2023/03/03 00:26:55;;;;;;;210.43;84.33;;;;;;;;;;5099267;28;20198;-47
2023/03/03 00:29:35;;;;;;;106.47;45.80;;;;;;;;;;5097575;28;20277;-47
2023/03/03 00:32:20;;;;;;;69.70;30.50;;;;;;;;;;5098690;28;20206;-47
2023/03/03 00:34:47;;;;;;;59.43;26.97;;;;;;;;;;5081042;28;20198;-47
2023/03/03 00:37:28;;;;;;;56.03;26.13;;;;;;;;;;5098185;28;20746;-49
2023/03/03 00:40:00;;;;;;;50.63;24.97;;;;;;;;;;5098927;28;20518;-46
2023/03/03 00:42:28;;;;;;;50.87;24.57;;;;;;;;;;5097762;28;20179;-47
2023/03/03 00:44:59;;;;;;;57.03;25.00;;;;;;;;;;5097526;28;20203;-47
2023/03/03 00:47:37;;;;;;;53.67;26.23;;;;;;;;;;5098180;28;20222;-49
2023/03/03 00:50:10;;;;;;;56.73;25.40;;;;;;;;;;5097249;28;20182;-47
2023/03/03 00:52:43;;;;;;;52.20;24.73;;;;;;;;;;5097554;28;20210;-47
2023/03/03 00:55:11;;;;;;;61.83;30.00;;;;;;;;;;5097242;28;20249;-47
2023/03/03 00:57:38;;;;;;;65.17;32.67;;;;;;;;;;5097113;28;20215;-47
2023/03/03 01:00:10;;;;;;;56.57;28.27;;;;;;;;;;5097353;28;20577;-47
2023/03/03 01:02:38;;;;;;;63.20;26.43;;;;;;;;;;5097071;28;20199;-46
2023/03/03 01:05:05;;;;;;;56.83;26.43;;;;;;;;;;5096904;28;20205;-47
2023/03/03 01:07:32;;;;;;;54.03;24.07;;;;;;;;;;5097874;28;20202;-47
2023/03/03 01:10:00;;;;;;;53.47;25.30;;;;;;;;;;5097507;28;20748;-47
2023/03/03 01:12:27;;;;;;;56.17;25.03;;;;;;;;;;5097823;28;20194;-47
2023/03/03 01:14:54;;;;;;;48.03;24.23;;;;;;;;;;5097891;28;20223;-48
2023/03/03 01:17:22;;;;;;;66.93;30.67;;;;;;;;;;5096640;28;20562;-47
2023/03/03 01:19:49;;;;;;;52.40;25.97;;;;;;;;;;5096614;28;20198;-46
2023/03/03 01:22:17;;;;;;;62.97;26.83;;;;;;;;;;5097639;28;20252;-47
2023/03/03 01:24:43;;;;;;;104.23;48.40;;;;;;;;;;5096536;28;20203;-47
2023/03/03 01:27:11;;;;;;;69.67;37.60;;;;;;;;;;5096469;28;20218;-47
2023/03/03 01:29:38;;;;;;;68.47;31.37;;;;;;;;;;5097919;28;20272;-47
2023/03/03 01:32:05;;;;;;;72.13;29.50;;;;;;;;;;5097821;28;20222;-47
2023/03/03 01:34:32;;;;;;;51.40;24.37;;;;;;;;;;5097343;28;20532;-48
2023/03/03 01:37:00;;;;;;;53.60;25.37;;;;;;;;;;5097824;28;20620;-49
2023/03/03 01:39:27;;;;;;;62.80;24.83;;;;;;;;;;5096547;28;20206;-47
2023/03/03 01:41:54;;;;;;;55.40;24.53;;;;;;;;;;5097387;28;20210;-47
2023/03/03 01:44:21;;;;;;;51.03;24.57;;;;;;;;;;5096568;28;20211;-47
2023/03/03 01:47:11;;;;;;;109.63;46.50;;;;;;;;;;5096530;28;20206;-48
2023/03/03 01:49:41;;;;;;;50.90;24.17;;;;;;;;;;5096198;28;20195;-47
2023/03/03 01:52:26;;;;;;;216.97;67.67;;;;;;;;;;5096922;28;20187;-47
2023/03/03 01:54:57;;;;;;;106.17;51.13;;;;;;;;;;5097212;28;20198;-47
2023/03/03 01:57:28;;;;;;;48.13;25.83;;;;;;;;;;5096950;28;20610;-48
2023/03/03 01:59:56;;;;;;;61.43;26.53;;;;;;;;;;5095894;28;20590;-47
2023/03/03 02:02:25;;;;;;;54.47;24.87;;;;;;;;;;5095852;28;20203;-47
2023/03/03 02:04:52;;;;;;;49.27;23.93;;;;;;;;;;5096992;28;20681;-46
2023/03/03 02:07:21;;;;;;;50.47;23.80;;;;;;;;;;5079271;28;20202;-47
2023/03/03 02:09:59;;;;;;;49.53;24.73;;;;;;;;;;5078989;28;20294;-46
2023/03/03 02:12:53;;;;;;;53.13;24.23;;;;;;;;;;5097072;28;20183;-48
2023/03/03 02:15:25;;;;;;;58.43;25.87;;;;;;;;;;5092344;28;20210;-46
2023/03/03 02:17:55;;;;;;;94.47;38.27;;;;;;;;;;5095704;28;20241;-47
2023/03/03 02:20:28;;;;;;;110.60;39.87;;;;;;;;;;5078738;28;20290;-48
2023/03/03 02:23:09;;;;;;;173.77;81.47;;;;;;;;;;5095502;28;20198;-48
2023/03/03 02:25:41;;;;;;;94.97;46.60;;;;;;;;;;5096200;28;20191;-47
2023/03/03 02:28:09;;;;;;;75.33;31.60;;;;;;;;;;5095681;28;20187;-46
2023/03/03 02:30:37;;;;;;;63.97;26.60;;;;;;;;;;5095652;28;20198;-48
2023/03/03 02:33:06;;;;;;;56.70;26.43;;;;;;;;;;5096228;28;20633;-50
2023/03/03 02:35:36;;;;;;;69.73;27.87;;;;;;;;;;5096118;28;20202;-47
2023/03/03 02:38:30;;;;;;;55.43;26.23;;;;;;;;;;5095970;28;20199;-47
2023/03/03 02:40:57;;;;;;;55.97;25.53;;;;;;;;;;5095607;28;20205;-47
2023/03/03 02:43:30;;;;;;;53.60;25.47;;;;;;;;;;5095889;28;20567;-47
2023/03/03 02:45:57;;;;;;;67.60;31.27;;;;;;;;;;5078808;28;20210;-48
2023/03/03 02:48:24;;;;;;;65.73;28.67;;;;;;;;;;5095226;28;20276;-46
2023/03/03 02:50:52;;;;;;;126.90;53.87;;;;;;;;;;5094980;28;20228;-47
2023/03/03 02:53:19;;;;;;;121.00;59.20;;;;;;;;;;5096293;28;20280;-48
2023/03/03 02:55:46;;;;;;;62.07;30.60;;;;;;;;;;5094985;28;20194;-47
2023/03/03 02:58:14;;;;;;;63.57;29.87;;;;;;;;;;5095005;28;20532;-47
2023/03/03 03:00:41;;;;;;;62.33;29.97;;;;;;;;;;5095864;28;20207;-47
2023/03/03 03:03:08;;;;;;;56.97;27.33;;;;;;;;;;5095937;28;20198;-48
2023/03/03 03:05:38;;;;;;;52.63;27.03;;;;;;;;;;5094599;28;20198;-47
2023/03/03 03:08:05;;;;;;;61.57;28.77;;;;;;;;;;5094615;28;20203;-47
2023/03/03 03:10:32;;;;;;;60.37;29.37;;;;;;;;;;5095576;28;20206;-47
2023/03/03 03:12:59;;;;;;;68.30;31.73;;;;;;;;;;5094801;28;20331;-46
2023/03/03 03:15:27;;;;;;;67.63;31.93;;;;;;;;;;5094836;28;20231;-47
2023/03/03 03:17:54;;;;;;;73.73;30.90;;;;;;;;;;5094467;28;20254;-48
2023/03/03 03:20:22;;;;;;;127.93;46.70;;;;;;;;;;5094341;28;20252;-47
2023/03/03 03:22:51;;;;;;;117.30;55.67;;;;;;;;;;5094730;28;20202;-47
2023/03/03 03:25:18;;;;;;;95.17;43.30;;;;;;;;;;5094486;28;20633;-46
2023/03/03 03:27:46;;;;;;;70.63;32.47;;;;;;;;;;5094524;28;20275;-47
2023/03/03 03:30:14;;;;;;;74.27;32.60;;;;;;;;;;5094980;28;20248;-49
2023/03/03 03:32:41;;;;;;;71.43;33.77;;;;;;;;;;5094463;28;20377;-47
2023/03/03 03:35:10;;;;;;;70.47;33.17;;;;;;;;;;5094003;28;20729;-47
2023/03/03 03:37:38;;;;;;;69.37;31.50;;;;;;;;;;5094179;28;20256;-47
2023/03/03 03:40:05;;;;;;;66.60;32.10;;;;;;;;;;5094382;28;20259;-46
2023/03/03 03:42:32;;;;;;;72.37;33.80;;;;;;;;;;5094112;28;20198;-46
2023/03/03 03:44:59;;;;;;;94.10;42.17;;;;;;;;;;5094260;28;20203;-48
2023/03/03 03:47:27;;;;;;;86.43;35.50;;;;;;;;;;5095249;28;20546;-47
2023/03/03 03:49:54;;;;;;;68.57;31.90;;;;;;;;;;5094066;28;20578;-47
2023/03/03 03:52:21;;;;;;;153.70;63.30;;;;;;;;;;5094970;28;20562;-47
2023/03/03 03:54:49;;;;;;;124.73;56.83;;;;;;;;;;5094293;28;20203;-46
2023/03/03 03:57:16;;;;;;;86.47;38.17;;;;;;;;;;5093917;28;20252;-47
2023/03/03 03:59:44;;;;;;;81.60;35.60;;;;;;;;;;5094358;28;20195;-47
2023/03/03 04:02:12;;;;;;;76.27;34.03;;;;;;;;;;5095052;28;20544;-48
2023/03/03 04:04:39;;;;;;;73.70;34.20;;;;;;;;;;5094869;28;20255;-47
2023/03/03 04:07:06;;;;;;;65.63;31.90;;;;;;;;;;5094002;28;20210;-48
2023/03/03 04:09:35;;;;;;;74.00;33.37;;;;;;;;;;5095178;28;20199;-54
2023/03/03 04:12:03;;;;;;;70.57;32.63;;;;;;;;;;5093944;28;20229;-47
2023/03/03 04:14:31;;;;;;;107.10;45.47;;;;;;;;;;5093802;28;20256;-47
2023/03/03 04:16:59;;;;;;;72.00;32.83;;;;;;;;;;5093544;28;20253;-48
2023/03/03 04:19:26;;;;;;;86.70;36.07;;;;;;;;;;5093726;28;20281;-47
2023/03/03 04:21:53;;;;;;;94.57;41.00;;;;;;;;;;5095466;28;20203;-47
2023/03/03 04:24:20;;;;;;;181.77;82.37;;;;;;;;;;5094595;28;20198;-51
2023/03/03 04:26:50;;;;;;;77.93;37.40;;;;;;;;;;5093775;28;20636;-52
2023/03/03 04:29:17;;;;;;;82.30;39.17;;;;;;;;;;5093811;28;20203;-52
2023/03/03 04:31:44;;;;;;;73.57;34.23;;;;;;;;;;5094498;28;20214;-53
2023/03/03 04:34:12;;;;;;;83.53;35.30;;;;;;;;;;5093889;28;20203;-48
2023/03/03 04:36:41;;;;;;;68.90;32.07;;;;;;;;;;5089599;28;20235;-48
2023/03/03 04:39:08;;;;;;;66.23;31.90;;;;;;;;;;5092486;28;20207;-51
2023/03/03 04:41:35;;;;;;;65.13;31.83;;;;;;;;;;5093455;28;20206;-47
2023/03/03 04:44:03;;;;;;;73.80;33.60;;;;;;;;;;5094534;28;20207;-47
2023/03/03 04:46:30;;;;;;;86.00;38.47;;;;;;;;;;5095598;28;20214;-47
2023/03/03 04:48:58;;;;;;;68.63;32.90;;;;;;;;;;5097066;28;20289;-51
2023/03/03 04:51:26;;;;;;;76.50;33.93;;;;;;;;;;5095872;28;21826;-48
2023/03/03 04:53:53;;;;;;;100.93;45.57;;;;;;;;;;5098100;28;20255;-49
2023/03/03 04:56:21;;;;;;;101.13;49.97;;;;;;;;;;5096787;28;20236;-53
2023/03/03 04:58:49;;;;;;;84.53;38.53;;;;;;;;;;5089256;28;20649;-47
2023/03/03 05:01:18;;;;;;;88.90;38.30;;;;;;;;;;5091192;28;20272;-47
2023/03/03 05:03:45;;;;;;;76.93;35.90;;;;;;;;;;5076391;28;20207;-46
2023/03/03 05:06:12;;;;;;;86.57;37.53;;;;;;;;;;5076564;28;20218;-46
2023/03/03 05:08:42;;;;;;;83.33;37.30;;;;;;;;;;5086315;28;20235;-47
2023/03/03 05:11:10;;;;;;;73.80;34.97;;;;;;;;;;5096402;28;20607;-48
2023/03/03 05:13:37;;;;;;;81.40;36.90;;;;;;;;;;5096496;28;20301;-49
2023/03/03 05:16:04;;;;;;;84.50;37.50;;;;;;;;;;5096410;28;20219;-47
2023/03/03 05:18:31;;;;;;;84.77;37.27;;;;;;;;;;5096365;28;20653;-47
2023/03/03 05:20:59;;;;;;;94.63;39.80;;;;;;;;;;5096855;28;20299;-47
2023/03/03 05:23:26;;;;;;;202.23;84.13;;;;;;;;;;5096113;28;20231;-47
2023/03/03 05:25:53;;;;;;;103.23;53.07;;;;;;;;;;5096639;28;20222;-47
2023/03/03 05:28:20;;;;;;;80.00;39.07;;;;;;;;;;5096352;28;20668;-46
2023/03/03 05:30:48;;;;;;;85.67;38.27;;;;;;;;;;5096758;28;20226;-47
2023/03/03 05:33:16;;;;;;;88.20;37.67;;;;;;;;;;5096252;28;20254;-47
2023/03/03 05:35:43;;;;;;;83.43;37.63;;;;;;;;;;5096505;28;20218;-48
2023/03/03 05:38:10;;;;;;;78.23;36.83;;;;;;;;;;5095585;28;20333;-47
2023/03/03 05:40:38;;;;;;;77.97;36.73;;;;;;;;;;5094840;28;20235;-47
2023/03/03 05:43:06;;;;;;;75.00;37.27;;;;;;;;;;5084849;28;20211;-53
2023/03/03 05:45:34;;;;;;;81.80;36.83;;;;;;;;;;5074667;28;20235;-47
2023/03/03 05:48:02;;;;;;;81.50;40.07;;;;;;;;;;5075521;28;20600;-50
2023/03/03 05:50:31;;;;;;;99.70;44.40;;;;;;;;;;5074008;28;20230;-47
2023/03/03 05:52:58;;;;;;;109.30;53.60;;;;;;;;;;5080815;28;20223;-46
2023/03/03 05:55:25;;;;;;;88.33;44.60;;;;;;;;;;5094335;28;20829;-48
2023/03/03 05:57:54;;;;;;;84.23;39.07;;;;;;;;;;5093391;28;20256;-50
2023/03/03 06:00:21;;;;;;;88.50;39.07;;;;;;;;;;5094452;28;20234;-50
2023/03/03 06:02:48;;;;;;;78.13;38.37;;;;;;;;;;5094120;28;20241;-46
2023/03/03 06:05:16;;;;;;;80.50;38.40;;;;;;;;;;5093676;28;20257;-47
2023/03/03 06:07:43;;;;;;;81.37;38.67;;;;;;;;;;5095607;28;20218;-47
2023/03/03 06:10:11;;;;;;;79.30;38.00;;;;;;;;;;5095826;28;20226;-48
2023/03/03 06:12:41;;;;;;;80.40;37.30;;;;;;;;;;5093603;28;20214;-48
2023/03/03 06:15:09;;;;;;;109.27;50.30;;;;;;;;;;5075953;28;20657;-49
2023/03/03 06:17:36;;;;;;;79.20;39.03;;;;;;;;;;5082062;28;20287;-46
2023/03/03 06:20:04;;;;;;;153.30;55.07;;;;;;;;;;5094165;28;20210;-51
2023/03/03 06:22:31;;;;;;;196.27;98.63;;;;;;;;;;5095940;28;20523;-54
2023/03/03 06:24:59;;;;;;;93.87;45.97;;;;;;;;;;5095566;28;20209;-47
2023/03/03 06:27:26;;;;;;;93.50;42.80;;;;;;;;;;5095702;28;20203;-50
2023/03/03 06:29:53;;;;;;;89.80;41.43;;;;;;;;;;5094688;28;20535;-50
2023/03/03 06:32:20;;;;;;;86.87;40.37;;;;;;;;;;5095465;28;20267;-46
2023/03/03 06:34:48;;;;;;;95.40;41.23;;;;;;;;;;5095869;28;20589;-48
2023/03/03 06:37:15;;;;;;;88.93;41.53;;;;;;;;;;5094948;28;20234;-48
2023/03/03 06:39:42;;;;;;;91.43;41.40;;;;;;;;;;5095554;28;20214;-48
2023/03/03 06:42:09;;;;;;;92.37;42.53;;;;;;;;;;5095751;28;20256;-47
2023/03/03 06:44:37;;;;;;;103.13;46.47;;;;;;;;;;5094810;28;20195;-48
2023/03/03 06:47:04;;;;;;;84.60;42.37;;;;;;;;;;5095904;28;20206;-48
2023/03/03 06:49:32;;;;;;;104.77;44.83;;;;;;;;;;5095537;28;20308;-46
2023/03/03 06:52:00;;;;;;;91.10;41.53;;;;;;;;;;5095573;28;20218;-47
2023/03/03 06:54:28;;;;;;;125.43;58.17;;;;;;;;;;5094883;28;20199;-48
2023/03/03 06:56:59;;;;;;;105.47;51.83;;;;;;;;;;5095559;28;20198;-47
2023/03/03 06:59:27;;;;;;;88.90;42.80;;;;;;;;;;5095569;28;20178;-50
2023/03/03 07:01:55;;;;;;;97.77;42.73;;;;;;;;;;5095502;28;20526;-47
2023/03/03 07:04:33;;;;;;;89.03;42.03;;;;;;;;;;5095461;28;20839;-46
2023/03/03 07:07:12;;;;;;;92.23;43.10;;;;;;;;;;5095455;28;20203;-47
2023/03/03 07:09:40;;;;;;;87.63;40.40;;;;;;;;;;5094003;28;20632;-46
2023/03/03 07:12:12;;;;;;;89.20;41.10;;;;;;;;;;5095354;28;20218;-46
2023/03/03 07:14:45;;;;;;;86.70;41.93;;;;;;;;;;5094515;28;20221;-49
2023/03/03 07:17:24;;;;;;;98.07;44.77;;;;;;;;;;5095302;28;20234;-50
2023/03/03 07:19:51;;;;;;;102.40;45.33;;;;;;;;;;5095169;28;20674;-46
2023/03/03 07:22:24;;;;;;;91.40;41.33;;;;;;;;;;5094487;28;20217;-48
2023/03/03 07:24:54;;;;;;;120.70;60.97;;;;;;;;;;5095190;28;20205;-47
2023/03/03 07:27:26;;;;;;;96.67;48.80;;;;;;;;;;5094821;28;20203;-49
2023/03/03 07:30:15;;;;;;;92.13;43.73;;;;;;;;;;5095310;28;20199;-47
2023/03/03 07:32:44;;;;;;;100.43;45.33;;;;;;;;;;5094724;28;20215;-50
2023/03/03 07:35:40;;;;;;;101.20;44.87;;;;;;;;;;5094934;28;20648;-47
2023/03/03 07:38:13;;;;;;;99.43;44.43;;;;;;;;;;5094620;28;20718;-47
2023/03/03 07:40:47;;;;;;;93.20;41.17;;;;;;;;;;5095017;28;20209;-46
2023/03/03 07:43:36;;;;;;;89.43;42.47;;;;;;;;;;5095297;28;20293;-46
2023/03/03 07:46:10;;;;;;;86.47;41.70;;;;;;;;;;5077518;28;20641;-46
2023/03/03 07:48:41;;;;;;;86.90;43.17;;;;;;;;;;5094699;28;20209;-51
2023/03/03 07:51:40;;;;;;;91.80;43.67;;;;;;;;;;5094390;28;20182;-49
2023/03/03 07:54:44;;;;;;;104.10;47.60;;;;;;;;;;5094788;28;20190;-47
2023/03/03 07:57:35;;;;;;;103.17;49.73;;;;;;;;;;5072808;28;20199;-47
2023/03/03 08:00:17;;;;;;;99.53;45.63;;;;;;;;;;5072784;28;20207;-46
2023/03/03 08:03:00;;;;;;;87.63;42.93;;;;;;;;;;5073084;28;20606;-48
2023/03/03 08:05:34;;;;;;;101.70;45.80;;;;;;;;;;5072946;28;20584;-47
2023/03/03 08:08:10;;;;;;;94.43;43.67;;;;;;;;;;5072564;28;20527;-46
2023/03/03 08:10:43;;;;;;;94.37;44.03;;;;;;;;;;5072979;28;20211;-47
2023/03/03 08:13:20;;;;;;;96.40;44.53;;;;;;;;;;5056411;28;20229;-49
2023/03/03 08:16:08;;;;;;;93.13;43.10;;;;;;;;;;5073060;28;20219;-46
2023/03/03 08:18:36;;;;;;;109.20;50.33;;;;;;;;;;5032774;28;20246;-46
2023/03/03 08:21:14;;;;;;;96.70;44.93;;;;;;;;;;5057514;28;20230;-47
2023/03/03 08:23:43;;;;;;;93.10;45.93;;;;;;;;;;5069952;28;20199;-48
2023/03/03 08:26:12;;;;;;;97.87;45.23;;;;;;;;;;5055688;28;20228;-48
2023/03/03 08:28:40;;;;;;;102.87;51.27;;;;;;;;;;5055282;28;20294;-47
2023/03/03 08:31:07;;;;;;;95.10;45.13;;;;;;;;;;5067703;28;20223;-48
2023/03/03 08:33:51;;;;;;;91.87;43.47;;;;;;;;;;5088606;28;20233;-47
2023/03/03 08:36:18;;;;;;;99.97;46.13;;;;;;;;;;5097411;28;20227;-48
2023/03/03 08:38:46;;;;;;;93.43;44.47;;;;;;;;;;5096606;28;20230;-52
2023/03/03 08:41:13;;;;;;;96.80;45.23;;;;;;;;;;5097546;28;20246;-50
2023/03/03 08:43:40;;;;;;;96.57;46.80;;;;;;;;;;5098287;28;20203;-52
2023/03/03 08:46:09;;;;;;;88.43;44.83;;;;;;;;;;5098083;28;20199;-46
2023/03/03 08:48:36;;;;;;;93.97;45.07;;;;;;;;;;5097764;28;20195;-46
2023/03/03 08:51:04;;;;;;;96.17;46.50;;;;;;;;;;5098016;28;20210;-46
2023/03/03 08:53:35;;;;;;;93.03;45.70;;;;;;;;;;5098006;28;20633;-46
2023/03/03 08:56:03;;;;;;;137.87;64.37;;;;;;;;;;5097968;28;20191;-46
2023/03/03 08:58:31;;;;;;;87.17;38.83;;;;;;;;;;5097726;28;20253;-47
2023/03/03 09:01:02;;;;;;;89.63;42.27;;;;;;;;;;5098069;28;20203;-46
2023/03/03 09:03:30;;;;;;;95.13;45.50;;;;;;;;;;5098618;28;20351;-46
2023/03/03 09:05:57;;;;;;;92.20;45.20;;;;;;;;;;5097755;28;20199;-48
2023/03/03 09:08:25;;;;;;;89.13;42.60;;;;;;;;;;5097577;28;20281;-46
2023/03/03 09:10:52;;;;;;;85.50;43.47;;;;;;;;;;5097622;28;20210;-47
2023/03/03 09:13:19;;;;;;;83.90;42.73;;;;;;;;;;5097775;28;20633;-46
2023/03/03 09:15:47;;;;;;;82.07;43.17;;;;;;;;;;5097807;28;20209;-46
2023/03/03 09:18:29;;;;;;;89.50;43.23;;;;;;;;;;5097303;28;20676;-46
2023/03/03 09:20:56;;;;;;;90.67;44.30;;;;;;;;;;5097197;28;20191;-46
2023/03/03 09:23:33;;;;;;;94.37;44.33;;;;;;;;;;5097425;28;20207;-48
2023/03/03 09:26:29;;;;;;;108.30;53.60;;;;;;;;;;5097682;28;20191;-47
2023/03/03 09:29:07;;;;;;;97.30;48.67;;;;;;;;;;5097254;28;20207;-47
2023/03/03 09:31:55;;;;;;;95.67;46.27;;;;;;;;;;5096308;28;20350;-48
2023/03/03 09:34:40;;;;;;;92.80;44.97;;;;;;;;;;5097923;28;20183;-48
2023/03/03 09:37:23;;;;;;;89.20;43.83;;;;;;;;;;5097262;28;20212;-47
2023/03/03 09:39:53;;;;;;;96.03;45.20;;;;;;;;;;5097220;28;20233;-46
2023/03/03 09:42:29;;;;;;;94.17;46.50;;;;;;;;;;5097058;28;20755;-46
2023/03/03 09:45:25;;;;;;;97.70;46.87;;;;;;;;;;5097490;28;20206;-46
2023/03/03 09:48:01;;;;;;;138.33;60.37;;;;;;;;;;5096228;28;20229;-47
2023/03/03 09:50:34;;;;;;;94.97;49.13;;;;;;;;;;5096941;28;20203;-50
2023/03/03 09:53:26;;;;;;;102.97;46.90;;;;;;;;;;5096108;28;20572;-53
2023/03/03 09:55:58;;;;;;;98.67;46.93;;;;;;;;;;5097070;28;20207;-49
2023/03/03 09:58:50;;;;;;;104.73;49.10;;;;;;;;;;5094580;28;20218;-50
2023/03/03 10:01:48;;;;;;;102.27;50.73;;;;;;;;;;5096476;28;20214;-47
2023/03/03 10:04:36;;;;;;;106.67;50.07;;;;;;;;;;5096594;28;20207;-47
2023/03/03 10:07:31;;;;;;;86.93;43.47;;;;;;;;;;5095619;28;20202;-47
2023/03/03 10:10:36;;;;;;;84.33;41.57;;;;;;;;;;5097076;28;20206;-47
2023/03/03 10:13:44;;;;;;;88.70;42.37;;;;;;;;;;5096441;28;20255;-46
2023/03/03 10:16:27;;;;;;;92.93;42.57;;;;;;;;;;5078258;28;20491;-47
2023/03/03 10:18:56;;;;;;;91.80;43.90;;;;;;;;;;5094784;28;20730;-46
2023/03/03 10:21:35;;;;;;;84.80;41.43;;;;;;;;;;5094485;28;20214;-47
2023/03/03 10:24:11;;;;;;;93.63;44.03;;;;;;;;;;5095346;28;20179;-49
2023/03/03 10:26:46;;;;;;;83.23;39.17;;;;;;;;;;5096038;28;20222;-46
2023/03/03 10:29:43;;;;;;;81.20;41.03;;;;;;;;;;5094859;28;20187;-46
2023/03/03 10:32:30;;;;;;;82.87;40.83;;;;;;;;;;5094822;28;20622;-46
2023/03/03 10:35:16;;;;;;;81.77;37.57;;;;;;;;;;5094827;28;20480;-47
2023/03/03 10:38:33;;;;;;;92.33;42.50;;;;;;;;;;5094862;28;20190;-53
2023/03/03 10:41:43;;;;;;;94.70;45.17;;;;;;;;;;5037289;28;20207;-53
2023/03/03 10:44:31;;;;;;;133.60;61.13;;;;;;;;;;4958585;28;20199;-53
2023/03/03 10:46:58;;;;;;;105.17;51.90;;;;;;;;;;5095496;28;20206;-51
2023/03/03 10:50:04;;;;;;;93.73;44.20;;;;;;;;;;5095508;28;20211;-51
2023/03/03 10:52:34;;;;;;;89.57;42.07;;;;;;;;;;5095688;28;20210;-50
2023/03/03 10:55:13;;;;;;;91.43;42.10;;;;;;;;;;5095454;28;20195;-50
2023/03/03 10:58:06;;;;;;;93.17;42.03;;;;;;;;;;5095368;28;20190;-52
2023/03/03 11:01:04;;;;;;;91.50;41.83;;;;;;;;;;5095041;28;20286;-52
2023/03/03 11:03:48;;;;;;;85.37;39.10;;;;;;;;;;5095689;28;20195;-50
2023/03/03 11:06:47;;;;;;;86.63;39.40;;;;;;;;;;5094891;28;20187;-51
2023/03/03 11:09:26;;;;;;;74.97;34.90;;;;;;;;;;5095348;28;20271;-50
2023/03/03 11:12:18;;;;;;;72.33;33.43;;;;;;;;;;5095291;28;20201;-49
2023/03/03 11:15:03;;;;;;;70.17;33.33;;;;;;;;;;5094911;28;20186;-53
2023/03/03 11:17:50;;;;;;;70.47;32.03;;;;;;;;;;5093966;28;20236;-50
2023/03/03 11:20:19;;;;;;;76.70;39.50;;;;;;;;;;5094791;28;20532;-53
2023/03/03 11:23:00;;;;;;;82.03;34.53;;;;;;;;;;5095676;28;20250;-47
2023/03/03 11:25:30;;;;;;;68.80;31.67;;;;;;;;;;5095063;28;20187;-50
2023/03/03 11:28:18;;;;;;;65.47;29.77;;;;;;;;;;5094933;28;20206;-50
2023/03/03 11:31:01;;;;;;;72.40;28.93;;;;;;;;;;5094859;28;20175;-51
2023/03/03 11:33:50;;;;;;;68.77;30.93;;;;;;;;;;5094736;28;20231;-53
2023/03/03 11:36:24;;;;;;;60.57;27.03;;;;;;;;;;5094721;28;20728;-50
2023/03/03 11:39:03;;;;;;;66.03;30.63;;;;;;;;;;5093930;28;20567;-50
2023/03/03 11:41:31;;;;;;;74.63;29.03;;;;;;;;;;5094733;28;20504;-48
2023/03/03 11:44:21;;;;;;;65.47;29.17;;;;;;;;;;5093769;28;20198;-51
2023/03/03 11:47:02;;;;;;;68.37;30.47;;;;;;;;;;5095016;28;20198;-47
2023/03/03 11:49:40;;;;;;;58.87;25.77;;;;;;;;;;5094467;28;20644;-47
2023/03/03 11:52:17;;;;;;;66.10;29.20;;;;;;;;;;5094429;28;20647;-45
2023/03/03 11:54:44;;;;;;;57.40;27.37;;;;;;;;;;5094805;28;20277;-46
2023/03/03 11:57:17;;;;;;;63.30;27.37;;;;;;;;;;5094351;28;20202;-49
2023/03/03 11:59:57;;;;;;;56.10;26.00;;;;;;;;;;5095089;28;20215;-46
2023/03/03 12:02:29;;;;;;;62.47;28.23;;;;;;;;;;5095082;28;20194;-46
2023/03/03 12:05:10;;;;;;;45.20;20.43;;;;;;;;;;5094096;28;20195;-46
2023/03/03 12:07:56;;;;;;;52.20;23.20;;;;;;;;;;5093637;28;20591;-46
2023/03/03 12:10:45;;;;;;;51.83;23.27;;;;;;;;;;5094686;28;20220;-47
2023/03/03 12:13:40;;;;;;;48.57;21.20;;;;;;;;;;5094354;28;20198;-46
2023/03/03 12:16:10;;;;;;;52.33;20.10;;;;;;;;;;5094836;28;20230;-48
2023/03/03 12:18:44;;;;;;;56.20;26.27;;;;;;;;;;5095055;28;20238;-49
2023/03/03 12:21:31;;;;;;;59.43;25.40;;;;;;;;;;5093849;28;20210;-46
2023/03/03 12:24:29;;;;;;;65.60;27.97;;;;;;;;;;5093675;28;20271;-46
2023/03/03 12:27:14;;;;;;;61.97;26.80;;;;;;;;;;5094419;28;20202;-46
2023/03/03 12:29:50;;;;;;;44.73;20.47;;;;;;;;;;5095409;28;20533;-47
2023/03/03 12:32:55;;;;;;;67.07;27.83;;;;;;;;;;5094291;28;20263;-45
2023/03/03 12:35:31;;;;;;;51.63;22.53;;;;;;;;;;5095398;28;20218;-46
2023/03/03 12:38:01;;;;;;;61.67;28.27;;;;;;;;;;5094289;28;20264;-46
2023/03/03 12:40:43;;;;;;;55.53;24.43;;;;;;;;;;5094466;28;20687;-46
2023/03/03 12:43:17;;;;;;;50.33;22.77;;;;;;;;;;5093410;28;20230;-48
2023/03/03 12:46:13;;;;;;;52.07;21.77;;;;;;;;;;5093730;28;20201;-45
2023/03/03 12:48:42;;;;;;;60.97;27.60;;;;;;;;;;5094796;28;20194;-46
2023/03/03 12:51:34;;;;;;;45.47;20.53;;;;;;;;;;5093619;28;20198;-49
2023/03/03 12:54:10;;;;;;;47.73;22.20;;;;;;;;;;5094309;28;20202;-53
2023/03/03 12:57:00;;;;;;;46.80;22.07;;;;;;;;;;5093176;28;20206;-46
2023/03/03 12:59:53;;;;;;;37.07;17.43;;;;;;;;;;5070518;28;20235;-46
2023/03/03 13:02:21;;;;;;;50.70;24.10;;;;;;;;;;5090093;28;20230;-48
2023/03/03 13:04:48;;;;;;;58.33;25.87;;;;;;;;;;5093268;28;20227;-47
2023/03/03 13:07:18;;;;;;;52.77;22.10;;;;;;;;;;5074877;28;20219;-45
2023/03/03 13:10:23;;;;;;;42.40;20.40;;;;;;;;;;5091870;28;20234;-46
2023/03/03 13:13:14;;;;;;;36.30;15.07;;;;;;;;;;5095766;28;20219;-48
2023/03/03 13:16:02;;;;;;;38.63;16.77;;;;;;;;;;5096976;28;20251;-45
2023/03/03 13:18:48;;;;;;;34.53;17.90;;;;;;;;;;5095353;28;20588;-45
2023/03/03 13:21:24;;;;;;;54.90;22.83;;;;;;;;;;5096393;28;20225;-46
2023/03/03 13:24:36;;;;;;;39.97;16.17;;;;;;;;;;5098016;28;20263;-46
2023/03/03 13:27:07;;;;;;;55.00;24.87;;;;;;;;;;5081711;28;20271;-45
2023/03/03 13:30:13;;;;;;;49.23;19.27;;;;;;;;;;5096826;28;20213;-45
2023/03/03 13:32:46;;;;;;;57.43;24.80;;;;;;;;;;5055297;28;20286;-46
2023/03/03 13:35:44;;;;;;;55.50;22.97;;;;;;;;;;5053690;28;20651;-46
2023/03/03 13:38:24;;;;;;;56.37;24.20;;;;;;;;;;5049597;28;20339;-49
2023/03/03 13:41:06;;;;;;;58.20;26.70;;;;;;;;;;5070763;28;20622;-48
2023/03/03 13:43:47;;;;;;;37.33;17.73;;;;;;;;;;5053977;28;20255;-46
2023/03/03 13:46:20;;;;;;;53.90;21.83;;;;;;;;;;5037770;28;20227;-46
2023/03/03 13:49:09;;;;;;;46.43;20.23;;;;;;;;;;5053167;28;20219;-47
2023/03/03 13:52:02;;;;;;;59.60;24.77;;;;;;;;;;5052543;28;20239;-46
2023/03/03 13:54:51;;;;;;;47.37;18.83;;;;;;;;;;5029251;28;20305;-49
2023/03/03 13:57:40;;;;;;;69.40;26.40;;;;;;;;;;5037255;28;20239;-50
2023/03/03 14:00:22;;;;;;;49.47;22.77;;;;;;;;;;5037097;28;20250;-51
2023/03/03 14:03:04;;;;;;;67.67;27.10;;;;;;;;;;5053599;28;20239;-50
2023/03/03 14:05:45;;;;;;;61.57;25.47;;;;;;;;;;5053615;28;20624;-50
2023/03/03 14:08:38;;;;;;;59.83;25.40;;;;;;;;;;5091413;27;20246;-49
2023/03/03 14:11:24;;;;;;;72.10;29.77;;;;;;;;;;5095329;28;20238;-50
2023/03/03 14:14:13;;;;;;;67.13;27.23;;;;;;;;;;5095020;28;20219;-51
2023/03/03 14:17:00;;;;;;;73.30;30.67;;;;;;;;;;5095523;28;20230;-54
2023/03/03 14:19:34;;;;;;;58.10;24.43;;;;;;;;;;5094365;28;20231;-50
2023/03/03 14:22:23;;;;;;;69.20;26.27;;;;;;;;;;5093417;28;20249;-51
2023/03/03 14:25:06;;;;;;;61.87;24.00;;;;;;;;;;5092324;28;20218;-50
2023/03/03 14:28:07;;;;;;;76.67;27.53;;;;;;;;;;5095673;28;20226;-51
2023/03/03 14:30:42;;;;;;;67.13;26.50;;;;;;;;;;5093615;28;20264;-49
2023/03/03 14:33:09;;;;;;;70.30;28.80;;;;;;;;;;5094635;28;20238;-50
2023/03/03 14:35:41;;;;;;;72.67;31.30;;;;;;;;;;5094957;28;20223;-52
2023/03/03 14:38:17;;;;;;;59.13;25.93;;;;;;;;;;5095168;28;20222;-49
2023/03/03 14:40:46;;;;;;;58.10;22.87;;;;;;;;;;5088482;28;20238;-51
2023/03/03 14:43:19;;;;;;;66.30;28.50;;;;;;;;;;5080956;28;20227;-48
2023/03/03 14:45:47;;;;;;;73.00;31.17;;;;;;;;;;5074516;28;20232;-50
2023/03/03 14:48:22;;;;;;;82.27;31.20;;;;;;;;;;5088808;28;20245;-51
2023/03/03 14:50:57;;;;;;;62.63;23.60;;;;;;;;;;5094182;28;20598;-48
2023/03/03 14:53:34;;;;;;;62.27;27.53;;;;;;;;;;5094403;28;20218;-50
2023/03/03 14:56:23;;;;;;;77.67;34.97;;;;;;;;;;5087312;28;20324;-48
2023/03/03 14:58:53;;;;;;;76.37;28.77;;;;;;;;;;5074661;28;20238;-47
2023/03/03 15:01:36;;;;;;;80.13;32.73;;;;;;;;;;5074565;28;20308;-46